sensor_id;sensor_type;location;lat;lon;timestamp;pressure;altitude;pressure_sealevel;temperature;humidity
32324;BME280;25666;44.350;9.222;2023-05-02T00:02:02;101066.47;;;17.50;100.00
32324;BME280;25666;44.350;9.222;2023-05-02T00:04:28;101065.72;;;17.53;100.00
32324;BME280;25666;44.350;9.222;2023-05-02T00:06:53;101051.56;;;17.46;100.00
32324;BME280;25666;44.350;9.222;2023-05-02T00:09:19;101071.63;;;17.45;100.00
32324;BME280;25666;44.350;9.222;2023-05-02T00:11:45;101057.97;;;17.43;100.00
32324;BME280;25666;44.350;9.222;2023-05-02T00:14:11;101058.03;;;17.50;100.00
32324;BME280;25666;44.350;9.222;2023-05-02T00:16:37;101055.19;;;17.47;100.00
32324;BME280;25666;44.350;9.222;2023-05-02T00:19:02;101048.72;;;17.43;100.00
32324;BME280;25666;44.350;9.222;2023-05-02T00:21:30;101050.34;;;17.44;100.00
32324;BME280;25666;44.350;9.222;2023-05-02T00:23:57;101051.50;;;17.39;100.00
32324;BME280;25666;44.350;9.222;2023-05-02T00:26:23;101037.53;;;17.50;100.00
32324;BME280;25666;44.350;9.222;2023-05-02T00:28:51;101041.88;;;17.40;100.00
32324;BME280;25666;44.350;9.222;2023-05-02T00:31:16;101037.03;;;17.37;100.00
32324;BME280;25666;44.350;9.222;2023-05-02T00:33:42;101029.78;;;17.36;100.00
32324;BME280;25666;44.350;9.222;2023-05-02T00:36:15;101019.78;;;17.42;100.00
32324;BME280;25666;44.350;9.222;2023-05-02T00:38:43;101019.72;;;17.35;100.00
32324;BME280;25666;44.350;9.222;2023-05-02T00:41:08;101021.78;;;17.38;100.00
32324;BME280;25666;44.350;9.222;2023-05-02T00:43:34;101006.50;;;17.43;100.00
32324;BME280;25666;44.350;9.222;2023-05-02T00:46:01;101012.56;;;17.48;100.00
32324;BME280;25666;44.350;9.222;2023-05-02T00:48:26;101007.25;;;17.36;100.00
32324;BME280;25666;44.350;9.222;2023-05-02T00:50:52;101017.31;;;17.37;100.00
32324;BME280;25666;44.350;9.222;2023-05-02T00:53:21;101014.84;;;17.32;100.00
32324;BME280;25666;44.350;9.222;2023-05-02T00:55:47;101006.84;;;17.34;100.00
32324;BME280;25666;44.350;9.222;2023-05-02T00:58:16;101011.59;;;17.27;100.00
32324;BME280;25666;44.350;9.222;2023-05-02T01:01:02;100997.13;;;17.25;100.00
32324;BME280;25666;44.350;9.222;2023-05-02T01:08:51;100999.16;;;17.28;100.00
32324;BME280;25666;44.350;9.222;2023-05-02T01:14:30;100999.97;;;17.28;100.00
32324;BME280;25666;44.350;9.222;2023-05-02T01:17:03;101002.81;;;17.32;100.00
32324;BME280;25666;44.350;9.222;2023-05-02T01:19:37;101002.34;;;17.26;100.00
32324;BME280;25666;44.350;9.222;2023-05-02T01:22:06;101003.56;;;17.25;100.00
32324;BME280;25666;44.350;9.222;2023-05-02T01:27:29;101013.22;;;17.28;100.00
32324;BME280;25666;44.350;9.222;2023-05-02T01:29:59;101005.16;;;17.26;100.00
32324;BME280;25666;44.350;9.222;2023-05-02T01:32:27;101015.19;;;17.24;100.00
32324;BME280;25666;44.350;9.222;2023-05-02T01:34:56;101023.66;;;17.27;100.00
32324;BME280;25666;44.350;9.222;2023-05-02T01:37:24;101009.97;;;17.22;100.00
32324;BME280;25666;44.350;9.222;2023-05-02T01:39:53;101019.63;;;17.25;100.00
32324;BME280;25666;44.350;9.222;2023-05-02T01:42:21;101020.81;;;17.24;100.00
32324;BME280;25666;44.350;9.222;2023-05-02T01:44:52;101032.06;;;17.24;100.00
32324;BME280;25666;44.350;9.222;2023-05-02T01:47:21;101022.44;;;17.25;100.00
32324;BME280;25666;44.350;9.222;2023-05-02T01:49:49;101021.56;;;17.17;100.00
32324;BME280;25666;44.350;9.222;2023-05-02T01:52:16;101017.19;;;17.20;100.00
32324;BME280;25666;44.350;9.222;2023-05-02T01:54:46;101007.97;;;17.23;100.00
32324;BME280;25666;44.350;9.222;2023-05-02T01:57:14;101013.53;;;17.16;100.00
32324;BME280;25666;44.350;9.222;2023-05-02T01:59:42;101022.03;;;17.23;100.00
32324;BME280;25666;44.350;9.222;2023-05-02T02:02:10;101014.78;;;17.22;100.00
32324;BME280;25666;44.350;9.222;2023-05-02T02:04:38;101020.28;;;17.07;100.00
32324;BME280;25666;44.350;9.222;2023-05-02T02:07:09;101022.75;;;17.12;100.00
32324;BME280;25666;44.350;9.222;2023-05-02T02:09:37;101016.69;;;17.10;100.00
32324;BME280;25666;44.350;9.222;2023-05-02T02:13:05;101014.31;;;17.12;100.00
32324;BME280;25666;44.350;9.222;2023-05-02T02:15:20;101001.44;;;17.11;100.00
32324;BME280;25666;44.350;9.222;2023-05-02T02:17:56;101005.88;;;17.12;100.00
32324;BME280;25666;44.350;9.222;2023-05-02T02:20:24;101018.28;;;17.08;100.00
32324;BME280;25666;44.350;9.222;2023-05-02T02:22:52;101009.88;;;17.11;100.00
32324;BME280;25666;44.350;9.222;2023-05-02T02:28:08;100998.25;;;17.13;100.00
32324;BME280;25666;44.350;9.222;2023-05-02T02:30:33;101006.69;;;17.13;100.00
32324;BME280;25666;44.350;9.222;2023-05-02T02:32:59;100994.63;;;17.12;100.00
32324;BME280;25666;44.350;9.222;2023-05-02T02:35:34;101004.66;;;17.13;100.00
32324;BME280;25666;44.350;9.222;2023-05-02T02:38:10;101003.44;;;17.11;100.00
32324;BME280;25666;44.350;9.222;2023-05-02T02:40:46;100992.13;;;17.07;100.00
32324;BME280;25666;44.350;9.222;2023-05-02T02:49:09;100984.56;;;17.11;100.00
32324;BME280;25666;44.350;9.222;2023-05-02T02:51:49;101001.03;;;17.09;100.00
32324;BME280;25666;44.350;9.222;2023-05-02T02:54:34;100997.41;;;17.09;100.00
32324;BME280;25666;44.350;9.222;2023-05-02T03:00:14;100991.31;;;17.03;100.00
32324;BME280;25666;44.350;9.222;2023-05-02T03:02:41;101010.19;;;17.03;100.00
32324;BME280;25666;44.350;9.222;2023-05-02T03:05:09;100999.03;;;17.10;100.00
32324;BME280;25666;44.350;9.222;2023-05-02T03:07:35;100994.94;;;17.04;100.00
32324;BME280;25666;44.350;9.222;2023-05-02T03:10:03;101005.00;;;17.08;100.00
32324;BME280;25666;44.350;9.222;2023-05-02T03:12:30;101022.63;;;17.02;100.00
32324;BME280;25666;44.350;9.222;2023-05-02T03:15:21;100980.88;;;17.04;100.00
32324;BME280;25666;44.350;9.222;2023-05-02T03:17:50;100982.84;;;17.00;100.00
32324;BME280;25666;44.350;9.222;2023-05-02T03:20:16;100993.25;;;16.96;100.00
32324;BME280;25666;44.350;9.222;2023-05-02T03:22:41;100976.00;;;16.97;100.00
32324;BME280;25666;44.350;9.222;2023-05-02T03:25:07;100987.25;;;16.97;100.00
32324;BME280;25666;44.350;9.222;2023-05-02T03:27:33;100997.69;;;16.97;100.00
32324;BME280;25666;44.350;9.222;2023-05-02T03:30:01;100982.03;;;16.99;100.00
32324;BME280;25666;44.350;9.222;2023-05-02T03:32:28;100994.94;;;17.04;100.00
32324;BME280;25666;44.350;9.222;2023-05-02T03:34:53;100998.91;;;16.99;100.00
32324;BME280;25666;44.350;9.222;2023-05-02T03:37:27;100998.53;;;17.04;100.00
32324;BME280;25666;44.350;9.222;2023-05-02T03:39:56;100986.91;;;17.06;100.00
32324;BME280;25666;44.350;9.222;2023-05-02T03:42:21;100976.41;;;16.99;100.00
32324;BME280;25666;44.350;9.222;2023-05-02T03:44:51;100971.97;;;16.98;100.00
32324;BME280;25666;44.350;9.222;2023-05-02T03:47:16;100982.94;;;17.07;100.00
32324;BME280;25666;44.350;9.222;2023-05-02T03:49:43;100992.47;;;16.99;100.00
32324;BME280;25666;44.350;9.222;2023-05-02T03:52:08;100964.00;;;17.04;100.00
32324;BME280;25666;44.350;9.222;2023-05-02T03:54:35;100993.66;;;16.94;100.00
32324;BME280;25666;44.350;9.222;2023-05-02T03:57:00;100976.41;;;16.99;100.00
32324;BME280;25666;44.350;9.222;2023-05-02T03:59:33;100986.00;;;16.91;100.00
32324;BME280;25666;44.350;9.222;2023-05-02T04:02:02;100971.53;;;16.93;100.00
32324;BME280;25666;44.350;9.222;2023-05-02T04:04:36;100975.91;;;16.87;100.00
32324;BME280;25666;44.350;9.222;2023-05-02T04:07:03;100992.81;;;16.90;100.00
32324;BME280;25666;44.350;9.222;2023-05-02T04:09:30;100979.06;;;16.82;100.00
32324;BME280;25666;44.350;9.222;2023-05-02T04:12:05;100985.09;;;16.84;100.00
32324;BME280;25666;44.350;9.222;2023-05-02T04:14:32;100995.13;;;16.81;100.00
32324;BME280;25666;44.350;9.222;2023-05-02T04:16:58;100991.59;;;16.88;100.00
32324;BME280;25666;44.350;9.222;2023-05-02T04:19:33;101007.63;;;16.87;100.00
32324;BME280;25666;44.350;9.222;2023-05-02T04:22:01;100999.97;;;16.84;100.00
32324;BME280;25666;44.350;9.222;2023-05-02T04:24:32;100999.09;;;16.77;100.00
32324;BME280;25666;44.350;9.222;2023-05-02T04:26:57;101014.03;;;16.84;100.00
32324;BME280;25666;44.350;9.222;2023-05-02T04:29:23;100996.38;;;16.87;100.00
32324;BME280;25666;44.350;9.222;2023-05-02T04:31:50;101005.97;;;16.83;100.00
32324;BME280;25666;44.350;9.222;2023-05-02T04:34:16;100997.94;;;16.81;100.00
32324;BME280;25666;44.350;9.222;2023-05-02T04:36:45;100997.84;;;16.74;100.00
32324;BME280;25666;44.350;9.222;2023-05-02T04:39:13;101017.53;;;16.74;100.00
32324;BME280;25666;44.350;9.222;2023-05-02T04:41:45;101008.28;;;16.74;100.00
32324;BME280;25666;44.350;9.222;2023-05-02T04:44:12;101015.94;;;16.77;100.00
32324;BME280;25666;44.350;9.222;2023-05-02T04:46:37;101019.56;;;16.77;100.00
32324;BME280;25666;44.350;9.222;2023-05-02T04:49:03;101004.25;;;16.71;100.00
32324;BME280;25666;44.350;9.222;2023-05-02T04:51:28;101035.22;;;16.75;100.00
32324;BME280;25666;44.350;9.222;2023-05-02T04:53:56;101054.13;;;16.78;100.00
32324;BME280;25666;44.350;9.222;2023-05-02T05:01:44;101042.06;;;16.77;100.00
32324;BME280;25666;44.350;9.222;2023-05-02T05:04:10;101049.31;;;16.78;100.00
32324;BME280;25666;44.350;9.222;2023-05-02T05:06:36;101049.34;;;16.82;100.00
32324;BME280;25666;44.350;9.222;2023-05-02T05:09:02;101054.16;;;16.81;100.00
32324;BME280;25666;44.350;9.222;2023-05-02T05:11:28;101062.16;;;16.79;100.00
32324;BME280;25666;44.350;9.222;2023-05-02T05:13:54;101078.69;;;16.84;100.00
32324;BME280;25666;44.350;9.222;2023-05-02T05:16:22;101114.44;;;16.84;100.00
32324;BME280;25666;44.350;9.222;2023-05-02T05:18:48;101071.84;;;16.85;100.00
32324;BME280;25666;44.350;9.222;2023-05-02T05:21:14;101070.31;;;16.88;100.00
32324;BME280;25666;44.350;9.222;2023-05-02T05:23:40;101104.47;;;16.90;100.00
32324;BME280;25666;44.350;9.222;2023-05-02T05:26:12;101075.97;;;16.91;100.00
32324;BME280;25666;44.350;9.222;2023-05-02T05:28:41;101085.91;;;16.85;100.00
32324;BME280;25666;44.350;9.222;2023-05-02T05:31:13;101072.34;;;16.91;100.00
32324;BME280;25666;44.350;9.222;2023-05-02T05:33:44;101095.56;;;16.84;100.00
32324;BME280;25666;44.350;9.222;2023-05-02T05:36:12;101106.13;;;16.94;100.00
32324;BME280;25666;44.350;9.222;2023-05-02T05:38:39;101116.44;;;16.83;100.00
32324;BME280;25666;44.350;9.222;2023-05-02T05:41:07;101103.22;;;16.87;100.00
32324;BME280;25666;44.350;9.222;2023-05-02T05:43:35;101113.72;;;16.90;100.00
32324;BME280;25666;44.350;9.222;2023-05-02T05:46:02;101106.34;;;16.79;100.00
32324;BME280;25666;44.350;9.222;2023-05-02T05:48:29;101114.28;;;16.73;100.00
32324;BME280;25666;44.350;9.222;2023-05-02T05:50:55;101109.56;;;16.81;100.00
32324;BME280;25666;44.350;9.222;2023-05-02T05:53:20;101119.44;;;16.68;100.00
32324;BME280;25666;44.350;9.222;2023-05-02T05:55:47;101116.19;;;16.62;100.00
32324;BME280;25666;44.350;9.222;2023-05-02T05:58:13;101096.31;;;16.51;100.00
32324;BME280;25666;44.350;9.222;2023-05-02T06:00:40;101136.31;;;16.41;100.00
32324;BME280;25666;44.350;9.222;2023-05-02T06:03:06;101116.06;;;16.55;100.00
32324;BME280;25666;44.350;9.222;2023-05-02T06:05:32;101116.34;;;16.46;100.00
32324;BME280;25666;44.350;9.222;2023-05-02T06:07:58;101131.28;;;16.54;100.00
32324;BME280;25666;44.350;9.222;2023-05-02T06:10:25;101163.41;;;16.53;100.00
32324;BME280;25666;44.350;9.222;2023-05-02T06:12:51;101135.25;;;16.49;100.00
32324;BME280;25666;44.350;9.222;2023-05-02T06:15:20;101138.44;;;16.48;100.00
32324;BME280;25666;44.350;9.222;2023-05-02T06:17:46;101145.03;;;16.59;100.00
32324;BME280;25666;44.350;9.222;2023-05-02T06:20:11;101144.81;;;16.45;100.00
32324;BME280;25666;44.350;9.222;2023-05-02T06:22:37;101150.94;;;16.54;100.00
32324;BME280;25666;44.350;9.222;2023-05-02T06:25:04;101128.75;;;16.45;100.00
32324;BME280;25666;44.350;9.222;2023-05-02T06:27:30;101168.28;;;16.56;100.00
32324;BME280;25666;44.350;9.222;2023-05-02T06:29:55;101161.91;;;16.33;100.00
32324;BME280;25666;44.350;9.222;2023-05-02T06:32:22;101150.38;;;16.41;100.00
32324;BME280;25666;44.350;9.222;2023-05-02T06:34:49;101168.88;;;16.16;100.00
32324;BME280;25666;44.350;9.222;2023-05-02T06:37:14;101165.47;;;16.30;100.00
32324;BME280;25666;44.350;9.222;2023-05-02T06:39:40;101177.25;;;16.13;100.00
32324;BME280;25666;44.350;9.222;2023-05-02T06:42:05;101166.09;;;16.16;100.00
32324;BME280;25666;44.350;9.222;2023-05-02T06:44:33;101173.31;;;15.94;100.00
32324;BME280;25666;44.350;9.222;2023-05-02T06:46:58;101162.34;;;16.08;100.00
32324;BME280;25666;44.350;9.222;2023-05-02T06:49:25;101157.09;;;16.07;100.00
32324;BME280;25666;44.350;9.222;2023-05-02T06:51:50;101168.38;;;16.11;100.00
32324;BME280;25666;44.350;9.222;2023-05-02T06:54:24;101176.50;;;16.16;100.00
32324;BME280;25666;44.350;9.222;2023-05-02T06:56:50;101162.13;;;16.21;100.00
32324;BME280;25666;44.350;9.222;2023-05-02T06:59:16;101178.06;;;16.13;100.00
32324;BME280;25666;44.350;9.222;2023-05-02T07:01:42;101154.69;;;16.35;100.00
32324;BME280;25666;44.350;9.222;2023-05-02T07:06:50;101179.34;;;16.45;100.00
32324;BME280;25666;44.350;9.222;2023-05-02T07:09:15;101177.91;;;16.55;100.00
32324;BME280;25666;44.350;9.222;2023-05-02T07:11:41;101187.63;;;16.61;100.00
32324;BME280;25666;44.350;9.222;2023-05-02T07:14:07;101187.63;;;16.61;100.00
32324;BME280;25666;44.350;9.222;2023-05-02T07:16:33;101180.44;;;16.64;100.00
32324;BME280;25666;44.350;9.222;2023-05-02T07:18:58;101185.44;;;16.77;100.00
32324;BME280;25666;44.350;9.222;2023-05-02T07:21:26;101179.72;;;16.70;100.00
32324;BME280;25666;44.350;9.222;2023-05-02T07:23:51;101178.63;;;16.78;100.00
32324;BME280;25666;44.350;9.222;2023-05-02T07:26:19;101227.13;;;16.72;100.00
32324;BME280;25666;44.350;9.222;2023-05-02T07:28:45;101187.91;;;16.82;100.00
32324;BME280;25666;44.350;9.222;2023-05-02T07:31:10;101189.16;;;16.85;100.00
32324;BME280;25666;44.350;9.222;2023-05-02T07:33:36;101207.63;;;16.86;100.00
32324;BME280;25666;44.350;9.222;2023-05-02T07:36:01;101195.63;;;16.89;100.00
32324;BME280;25666;44.350;9.222;2023-05-02T07:38:27;101200.78;;;16.83;100.00
32324;BME280;25666;44.350;9.222;2023-05-02T07:40:53;101207.72;;;16.93;100.00
32324;BME280;25666;44.350;9.222;2023-05-02T07:43:21;101215.09;;;17.04;100.00
32324;BME280;25666;44.350;9.222;2023-05-02T07:45:47;101218.06;;;16.85;100.00
32324;BME280;25666;44.350;9.222;2023-05-02T07:48:36;101191.41;;;16.72;100.00
32324;BME280;25666;44.350;9.222;2023-05-02T07:51:12;101198.09;;;16.64;100.00
32324;BME280;25666;44.350;9.222;2023-05-02T07:53:37;101189.41;;;16.46;100.00
32324;BME280;25666;44.350;9.222;2023-05-02T07:56:03;101193.59;;;16.56;100.00
32324;BME280;25666;44.350;9.222;2023-05-02T07:58:30;101193.09;;;16.54;100.00
32324;BME280;25666;44.350;9.222;2023-05-02T08:00:56;101218.78;;;16.52;100.00
32324;BME280;25666;44.350;9.222;2023-05-02T08:03:21;101205.63;;;16.86;100.00
32324;BME280;25666;44.350;9.222;2023-05-02T08:05:50;101221.44;;;16.94;100.00
32324;BME280;25666;44.350;9.222;2023-05-02T08:08:15;101233.81;;;17.23;100.00
32324;BME280;25666;44.350;9.222;2023-05-02T08:10:41;101215.16;;;17.41;100.00
32324;BME280;25666;44.350;9.222;2023-05-02T08:13:06;101216.38;;;17.44;100.00
32324;BME280;25666;44.350;9.222;2023-05-02T08:15:32;101216.59;;;17.61;100.00
32324;BME280;25666;44.350;9.222;2023-05-02T08:17:57;101227.41;;;17.56;100.00
32324;BME280;25666;44.350;9.222;2023-05-02T08:20:23;101220.00;;;17.81;100.00
32324;BME280;25666;44.350;9.222;2023-05-02T08:22:49;101225.69;;;17.85;100.00
32324;BME280;25666;44.350;9.222;2023-05-02T08:25:15;101268.34;;;17.87;100.00
32324;BME280;25666;44.350;9.222;2023-05-02T08:27:41;101239.63;;;18.14;100.00
32324;BME280;25666;44.350;9.222;2023-05-02T08:30:06;101227.97;;;18.16;100.00
32324;BME280;25666;44.350;9.222;2023-05-02T08:32:32;101241.78;;;18.32;100.00
32324;BME280;25666;44.350;9.222;2023-05-02T08:34:58;101239.13;;;18.49;100.00
32324;BME280;25666;44.350;9.222;2023-05-02T08:37:27;101251.63;;;18.55;100.00
32324;BME280;25666;44.350;9.222;2023-05-02T08:39:53;101226.31;;;18.62;100.00
32324;BME280;25666;44.350;9.222;2023-05-02T08:42:20;101229.53;;;18.57;100.00
32324;BME280;25666;44.350;9.222;2023-05-02T08:44:47;101228.00;;;18.74;100.00
32324;BME280;25666;44.350;9.222;2023-05-02T08:47:15;101225.34;;;19.06;100.00
32324;BME280;25666;44.350;9.222;2023-05-02T08:49:42;101226.47;;;18.87;100.00
32324;BME280;25666;44.350;9.222;2023-05-02T08:52:08;101230.53;;;18.97;100.00
32324;BME280;25666;44.350;9.222;2023-05-02T08:54:36;101206.16;;;19.50;100.00
32324;BME280;25666;44.350;9.222;2023-05-02T08:57:03;101210.59;;;19.44;100.00
32324;BME280;25666;44.350;9.222;2023-05-02T08:59:29;101224.38;;;19.85;100.00
32324;BME280;25666;44.350;9.222;2023-05-02T09:02:00;101232.00;;;19.63;100.00
32324;BME280;25666;44.350;9.222;2023-05-02T09:04:31;101225.16;;;19.71;100.00
32324;BME280;25666;44.350;9.222;2023-05-02T09:07:00;101228.44;;;19.98;100.00
32324;BME280;25666;44.350;9.222;2023-05-02T09:09:26;101240.53;;;20.09;100.00
32324;BME280;25666;44.350;9.222;2023-05-02T09:11:53;101270.78;;;19.87;100.00
32324;BME280;25666;44.350;9.222;2023-05-02T09:14:18;101232.03;;;19.77;100.00
32324;BME280;25666;44.350;9.222;2023-05-02T09:16:44;101240.50;;;19.81;100.00
32324;BME280;25666;44.350;9.222;2023-05-02T09:19:10;101235.72;;;20.20;100.00
32324;BME280;25666;44.350;9.222;2023-05-02T09:21:37;101256.69;;;19.91;100.00
32324;BME280;25666;44.350;9.222;2023-05-02T09:24:20;101261.13;;;19.88;100.00
32324;BME280;25666;44.350;9.222;2023-05-02T09:27:04;101278.94;;;20.31;100.00
32324;BME280;25666;44.350;9.222;2023-05-02T09:29:32;101281.38;;;20.29;100.00
32324;BME280;25666;44.350;9.222;2023-05-02T09:32:03;101291.78;;;19.83;100.00
32324;BME280;25666;44.350;9.222;2023-05-02T09:34:29;101282.50;;;19.93;100.00
32324;BME280;25666;44.350;9.222;2023-05-02T09:36:57;101270.81;;;20.12;100.00
32324;BME280;25666;44.350;9.222;2023-05-02T09:39:25;101290.97;;;19.86;100.00
32324;BME280;25666;44.350;9.222;2023-05-02T09:41:51;101259.94;;;20.14;100.00
32324;BME280;25666;44.350;9.222;2023-05-02T09:44:19;101273.66;;;20.19;100.00
32324;BME280;25666;44.350;9.222;2023-05-02T09:46:47;101248.66;;;20.32;100.00
32324;BME280;25666;44.350;9.222;2023-05-02T09:49:13;101284.09;;;19.87;100.00
32324;BME280;25666;44.350;9.222;2023-05-02T09:51:40;101261.94;;;19.89;100.00
32324;BME280;25666;44.350;9.222;2023-05-02T09:54:08;101285.34;;;20.03;100.00
32324;BME280;25666;44.350;9.222;2023-05-02T09:56:51;101280.91;;;19.88;100.00
32324;BME280;25666;44.350;9.222;2023-05-02T09:59:17;101303.81;;;19.65;100.00
32324;BME280;25666;44.350;9.222;2023-05-02T10:01:42;101278.09;;;20.06;100.00
32324;BME280;25666;44.350;9.222;2023-05-02T10:04:12;101279.66;;;19.89;100.00
32324;BME280;25666;44.350;9.222;2023-05-02T10:06:43;101275.66;;;19.94;100.00
32324;BME280;25666;44.350;9.222;2023-05-02T10:09:09;101293.84;;;20.07;100.00
32324;BME280;25666;44.350;9.222;2023-05-02T10:11:41;101287.38;;;20.06;100.00
32324;BME280;25666;44.350;9.222;2023-05-02T10:14:09;101318.41;;;19.82;100.00
32324;BME280;25666;44.350;9.222;2023-05-02T10:16:47;101290.19;;;20.20;100.00
32324;BME280;25666;44.350;9.222;2023-05-02T10:19:21;101300.28;;;20.00;100.00
32324;BME280;25666;44.350;9.222;2023-05-02T10:21:48;101312.00;;;20.02;100.00
32324;BME280;25666;44.350;9.222;2023-05-02T10:24:14;101299.47;;;19.86;100.00
32324;BME280;25666;44.350;9.222;2023-05-02T10:26:41;101305.16;;;20.21;100.00
32324;BME280;25666;44.350;9.222;2023-05-02T10:29:08;101303.47;;;19.77;100.00
32324;BME280;25666;44.350;9.222;2023-05-02T10:31:33;101318.78;;;19.73;100.00
32324;BME280;25666;44.350;9.222;2023-05-02T10:33:59;101309.94;;;19.82;100.00
32324;BME280;25666;44.350;9.222;2023-05-02T10:36:27;101301.50;;;19.89;100.00
32324;BME280;25666;44.350;9.222;2023-05-02T10:38:53;101322.84;;;19.90;100.00
32324;BME280;25666;44.350;9.222;2023-05-02T10:41:25;101296.63;;;19.96;100.00
32324;BME280;25666;44.350;9.222;2023-05-02T10:43:52;101296.25;;;20.05;100.00
32324;BME280;25666;44.350;9.222;2023-05-02T10:46:31;101309.56;;;20.11;100.00
32324;BME280;25666;44.350;9.222;2023-05-02T10:49:01;101299.88;;;19.91;100.00
32324;BME280;25666;44.350;9.222;2023-05-02T10:51:27;101319.28;;;20.07;100.00
32324;BME280;25666;44.350;9.222;2023-05-02T10:53:54;101294.13;;;19.59;100.00
32324;BME280;25666;44.350;9.222;2023-05-02T10:56:21;101313.16;;;19.80;100.00
32324;BME280;25666;44.350;9.222;2023-05-02T10:58:49;101334.91;;;19.69;100.00
32324;BME280;25666;44.350;9.222;2023-05-02T11:04:04;101294.59;;;19.75;100.00
32324;BME280;25666;44.350;9.222;2023-05-02T11:06:32;101286.13;;;19.86;100.00
32324;BME280;25666;44.350;9.222;2023-05-02T11:11:47;101288.97;;;19.93;100.00
32324;BME280;25666;44.350;9.222;2023-05-02T11:20:17;101287.00;;;20.43;100.00
32324;BME280;25666;44.350;9.222;2023-05-02T11:24:45;101269.66;;;20.48;99.26
32324;BME280;25666;44.350;9.222;2023-05-02T11:30:03;101286.59;;;20.62;100.00
32324;BME280;25666;44.350;9.222;2023-05-02T11:35:21;101301.16;;;20.47;100.00
32324;BME280;25666;44.350;9.222;2023-05-02T11:38:01;101308.03;;;20.42;99.34
32324;BME280;25666;44.350;9.222;2023-05-02T11:40:30;101299.16;;;20.51;97.03
32324;BME280;25666;44.350;9.222;2023-05-02T11:48:20;101297.94;;;20.48;98.75
32324;BME280;25666;44.350;9.222;2023-05-02T11:50:51;101285.41;;;20.67;98.26
32324;BME280;25666;44.350;9.222;2023-05-02T11:53:20;101279.31;;;20.65;97.79
32324;BME280;25666;44.350;9.222;2023-05-02T11:55:59;101308.44;;;20.44;94.83
32324;BME280;25666;44.350;9.222;2023-05-02T11:58:30;101293.03;;;20.91;97.64
32324;BME280;25666;44.350;9.222;2023-05-02T12:03:41;101299.53;;;20.63;96.99
32324;BME280;25666;44.350;9.222;2023-05-02T12:08:48;101294.69;;;20.53;96.29
32324;BME280;25666;44.350;9.222;2023-05-02T12:16:29;101294.28;;;20.69;95.11
32324;BME280;25666;44.350;9.222;2023-05-02T12:18:55;101297.53;;;20.67;96.18
32324;BME280;25666;44.350;9.222;2023-05-02T12:21:26;101273.66;;;20.65;98.68
32324;BME280;25666;44.350;9.222;2023-05-02T12:23:56;101309.22;;;20.59;97.63
32324;BME280;25666;44.350;9.222;2023-05-02T12:26:24;101308.00;;;20.46;98.15
32324;BME280;25666;44.350;9.222;2023-05-02T12:28:54;101297.09;;;20.72;96.84
32324;BME280;25666;44.350;9.222;2023-05-02T12:31:20;101298.75;;;20.45;97.37
32324;BME280;25666;44.350;9.222;2023-05-02T12:33:46;101326.63;;;20.50;98.05
32324;BME280;25666;44.350;9.222;2023-05-02T12:36:17;101318.13;;;20.50;96.74
32324;BME280;25666;44.350;9.222;2023-05-02T12:39:02;101302.75;;;20.62;94.70
32324;BME280;25666;44.350;9.222;2023-05-02T12:41:37;101280.56;;;20.57;95.43
32324;BME280;25666;44.350;9.222;2023-05-02T12:52:46;101299.94;;;20.76;98.05
32324;BME280;25666;44.350;9.222;2023-05-02T12:55:22;101275.28;;;20.62;95.10
32324;BME280;25666;44.350;9.222;2023-05-02T12:57:49;101300.75;;;20.66;100.00
32324;BME280;25666;44.350;9.222;2023-05-02T13:00:18;101278.13;;;20.55;97.25
32324;BME280;25666;44.350;9.222;2023-05-02T13:02:44;101289.03;;;20.50;99.53
32324;BME280;25666;44.350;9.222;2023-05-02T13:05:14;101277.69;;;20.71;100.00
32324;BME280;25666;44.350;9.222;2023-05-02T13:07:39;101267.19;;;20.64;100.00
32324;BME280;25666;44.350;9.222;2023-05-02T13:10:05;101278.94;;;20.56;100.00
32324;BME280;25666;44.350;9.222;2023-05-02T13:12:31;101278.94;;;20.56;100.00
32324;BME280;25666;44.350;9.222;2023-05-02T13:14:56;101274.09;;;20.60;100.00
32324;BME280;25666;44.350;9.222;2023-05-02T13:19:47;101264.41;;;20.50;94.46
32324;BME280;25666;44.350;9.222;2023-05-02T13:22:13;101253.84;;;20.86;94.48
32324;BME280;25666;44.350;9.222;2023-05-02T13:24:38;101263.97;;;20.66;88.88
32324;BME280;25666;44.350;9.222;2023-05-02T13:27:04;101258.25;;;20.91;89.93
32324;BME280;25666;44.350;9.222;2023-05-02T13:29:29;101265.16;;;20.75;89.80
32324;BME280;25666;44.350;9.222;2023-05-02T13:31:55;101251.78;;;20.94;92.18
32324;BME280;25666;44.350;9.222;2023-05-02T13:34:21;101256.63;;;20.97;90.93
32324;BME280;25666;44.350;9.222;2023-05-02T13:36:49;101258.63;;;21.07;86.79
32324;BME280;25666;44.350;9.222;2023-05-02T13:39:15;101254.16;;;21.16;82.33
32324;BME280;25666;44.350;9.222;2023-05-02T13:41:40;101245.22;;;21.21;84.92
32324;BME280;25666;44.350;9.222;2023-05-02T13:44:07;101249.25;;;21.24;83.43
32324;BME280;25666;44.350;9.222;2023-05-02T13:46:33;101241.59;;;21.21;79.65
32324;BME280;25666;44.350;9.222;2023-05-02T13:49:04;101239.16;;;21.26;77.43
32324;BME280;25666;44.350;9.222;2023-05-02T13:51:33;101244.78;;;21.33;76.50
32324;BME280;25666;44.350;9.222;2023-05-02T13:53:59;101248.78;;;21.40;78.20
32324;BME280;25666;44.350;9.222;2023-05-02T13:56:25;101244.78;;;21.33;76.14
32324;BME280;25666;44.350;9.222;2023-05-02T13:58:51;101249.63;;;21.36;77.09
32324;BME280;25666;44.350;9.222;2023-05-02T14:01:16;101243.91;;;21.47;78.60
32324;BME280;25666;44.350;9.222;2023-05-02T14:03:42;101245.53;;;21.45;100.00